Time;durP1;ratioP1;P1;durP2;ratioP2;P2;SDS_P1;SDS_P2;PMS_P1;PMS_P2;Temp;Humidity;BMP_temperature;BMP_pressure;BME280_temperature;BME280_humidity;BME280_pressure;Samples;Min_cycle;Max_cycle;Signal;HPM_P1;HPM_P2
2024/03/19 00:00:38;;;;;;;9.05;4.72;;;2.50;76.30;;;;;;5024382;28;20559;-66
2024/03/19 00:03:08;;;;;;;8.20;4.95;;;1.90;73.00;;;;;;5031941;28;20033;-64
2024/03/19 00:05:34;;;;;;;10.90;5.00;;;2.00;72.60;;;;;;5024546;28;20113;-65
2024/03/19 00:07:59;;;;;;;8.55;4.40;;;2.00;73.20;;;;;;5034691;28;20091;-65
2024/03/19 00:10:25;;;;;;;9.77;4.95;;;2.00;74.70;;;;;;5033421;28;20041;-65
2024/03/19 00:12:51;;;;;;;6.72;4.55;;;1.90;73.20;;;;;;5028449;28;20037;-63
2024/03/19 00:15:17;;;;;;;7.10;5.03;;;1.90;72.80;;;;;;5035342;28;19916;-63
2024/03/19 00:17:42;;;;;;;6.57;4.43;;;1.90;76.80;;;;;;5035430;28;20099;-64
2024/03/19 00:20:09;;;;;;;7.22;4.85;;;1.70;72.00;;;;;;5015321;28;20056;-62
2024/03/19 00:22:36;;;;;;;10.32;5.05;;;;;;;;;;5023359;28;20068;-63
2024/03/19 00:25:02;;;;;;;8.70;5.13;;;;;;;;;;5031920;28;20045;-63
2024/03/19 00:27:28;;;;;;;9.63;4.82;;;;;;;;;;5029015;28;20041;-63
2024/03/19 00:29:54;;;;;;;9.60;5.40;;;;;;;;;;5029618;28;20033;-65
2024/03/19 00:32:20;;;;;;;9.30;5.35;;;;;;;;;;5021440;28;20108;-63
2024/03/19 00:34:48;;;;;;;9.52;5.85;;;1.50;72.70;;;;;;5029708;28;20267;-66
2024/03/19 00:37:15;;;;;;;8.23;5.00;;;;;;;;;;5024547;28;20045;-66
2024/03/19 00:39:40;;;;;;;9.23;5.03;;;1.30;94.10;;;;;;5032228;28;20272;-63
2024/03/19 00:42:06;;;;;;;8.43;5.40;;;1.40;94.60;;;;;;5032770;28;20033;-63
2024/03/19 00:44:32;;;;;;;8.50;4.82;;;1.20;94.90;;;;;;5034605;28;20107;-64
2024/03/19 00:46:58;;;;;;;9.05;4.93;;;1.30;94.20;;;;;;5032501;28;20040;-65
2024/03/19 00:49:26;;;;;;;9.38;5.55;;;1.20;94.20;;;;;;5023418;28;20360;-63
2024/03/19 00:51:52;;;;;;;9.73;5.32;;;1.10;80.00;;;;;;5026932;28;20030;-64
2024/03/19 00:54:18;;;;;;;9.40;4.85;;;1.50;94.60;;;;;;5028124;28;20037;-65
2024/03/19 00:56:45;;;;;;;9.40;5.57;;;1.50;79.60;;;;;;5026612;28;20115;-69
2024/03/19 00:59:14;;;;;;;9.23;5.47;;;1.00;94.80;;;;;;5029343;28;20079;-65
2024/03/19 01:01:40;;;;;;;9.40;5.68;;;;;;;;;;5036034;28;20038;-66
2024/03/19 01:04:06;;;;;;;9.48;5.93;;;1.00;95.90;;;;;;5024526;28;20033;-66
2024/03/19 01:06:36;;;;;;;10.82;5.90;;;1.10;96.40;;;;;;5024230;28;20097;-66
2024/03/19 01:09:05;;;;;;;8.82;5.13;;;0.90;76.10;;;;;;5026157;28;20097;-67
2024/03/19 01:11:32;;;;;;;13.23;6.22;;;0.90;76.50;;;;;;5025000;28;20037;-69
2024/03/19 01:13:59;;;;;;;11.93;6.35;;;0.90;76.90;;;;;;5035496;28;20096;-65
2024/03/19 01:16:27;;;;;;;11.45;6.30;;;0.80;77.00;;;;;;5031825;28;20108;-66
2024/03/19 01:18:53;;;;;;;11.03;6.10;;;0.80;77.40;;;;;;5034816;28;20345;-66
2024/03/19 01:21:19;;;;;;;10.45;5.78;;;;;;;;;;5040336;28;20049;-65
2024/03/19 01:23:45;;;;;;;8.65;5.07;;;0.70;95.50;;;;;;5019550;28;20219;-66
2024/03/19 01:26:11;;;;;;;10.38;5.55;;;1.00;96.00;;;;;;5029778;28;20048;-66
2024/03/19 01:28:37;;;;;;;11.57;6.05;;;0.70;96.40;;;;;;5025395;28;20038;-67
2024/03/19 01:31:02;;;;;;;10.88;5.50;;;0.50;97.20;;;;;;5026166;28;20037;-66
2024/03/19 01:33:28;;;;;;;9.25;5.30;;;0.60;97.10;;;;;;5026640;28;20046;-67
2024/03/19 01:35:54;;;;;;;9.30;5.32;;;0.60;97.60;;;;;;5038815;28;20381;-64
2024/03/19 01:38:24;;;;;;;10.68;5.72;;;0.60;97.60;;;;;;5031798;28;20104;-68
2024/03/19 01:40:50;;;;;;;10.30;5.13;;;0.40;97.50;;;;;;5038421;28;20087;-68
2024/03/19 01:43:21;;;;;;;10.15;5.78;;;0.50;97.50;;;;;;5029983;28;20030;-67
2024/03/19 01:46:06;;;;;;;9.43;5.45;;;0.60;98.60;;;;;;5020520;28;20080;-68
2024/03/19 01:48:32;;;;;;;9.70;5.53;;;0.50;99.20;;;;;;5028487;28;20076;-66
2024/03/19 01:50:59;;;;;;;11.35;5.57;;;0.40;98.30;;;;;;5022189;28;20025;-66
2024/03/19 01:53:26;;;;;;;9.85;5.60;;;0.40;99.20;;;;;;5021843;28;20222;-66
2024/03/19 01:55:52;;;;;;;12.68;5.78;;;0.30;99.20;;;;;;5033016;28;20041;-65
2024/03/19 01:58:21;;;;;;;8.48;5.55;;;0.40;99.00;;;;;;5029063;28;20034;-66
2024/03/19 02:00:47;;;;;;;9.50;5.23;;;0.30;99.10;;;;;;5020150;28;20029;-66
2024/03/19 02:03:13;;;;;;;10.95;5.82;;;0.50;99.70;;;;;;5033409;28;20706;-66
2024/03/19 02:05:39;;;;;;;10.73;5.75;;;0.50;99.20;;;;;;5032214;28;20018;-66
2024/03/19 02:08:05;;;;;;;11.23;5.60;;;0.40;83.80;;;;;;5036108;28;20033;-65
2024/03/19 02:10:31;;;;;;;10.10;5.75;;;0.60;99.90;;;;;;5030152;28;20030;-65
2024/03/19 02:12:56;;;;;;;11.13;5.95;;;0.60;99.90;;;;;;5018230;28;20045;-64
2024/03/19 02:15:22;;;;;;;9.55;5.82;;;0.50;99.90;;;;;;5027578;28;20037;-65
2024/03/19 02:17:48;;;;;;;10.73;6.13;;;;;;;;;;5028343;28;20037;-66
2024/03/19 02:20:15;;;;;;;9.02;4.72;;;;;;;;;;5024817;28;20029;-66
2024/03/19 02:22:46;;;;;;;9.02;5.70;;;0.90;99.70;;;;;;5030520;28;20021;-64
2024/03/19 02:25:12;;;;;;;11.40;6.43;;;1.00;99.40;;;;;;5029242;28;20068;-63
2024/03/19 02:27:38;;;;;;;14.13;6.60;;;1.10;99.80;;;;;;5021602;28;20533;-63
2024/03/19 02:30:05;;;;;;;9.30;5.55;;;1.20;99.50;;;;;;5031596;28;20072;-65
2024/03/19 02:32:31;;;;;;;10.90;6.22;;;1.00;99.40;;;;;;5033005;28;20053;-66
2024/03/19 02:34:56;;;;;;;10.25;5.95;;;1.30;99.30;;;;;;5031186;28;20433;-66
2024/03/19 02:37:22;;;;;;;11.65;6.05;;;1.20;99.40;;;;;;5019502;28;20068;-66
2024/03/19 02:39:48;;;;;;;11.02;5.05;;;1.30;99.50;;;;;;5019427;28;20111;-65
2024/03/19 02:42:14;;;;;;;9.05;5.72;;;;;;;;;;5033100;28;20237;-63
2024/03/19 02:44:40;;;;;;;10.52;5.75;;;;;;;;;;5041615;28;20033;-64
2024/03/19 02:47:06;;;;;;;9.45;5.22;;;1.80;99.90;;;;;;5027840;28;20033;-63
2024/03/19 02:49:31;;;;;;;10.02;5.55;;;1.40;99.80;;;;;;5032505;28;20371;-63
2024/03/19 02:51:57;;;;;;;9.98;5.97;;;1.70;99.90;;;;;;5021341;28;20055;-63
2024/03/19 02:54:22;;;;;;;12.70;6.18;;;1.70;99.90;;;;;;5032476;28;20121;-63
2024/03/19 02:56:48;;;;;;;9.20;5.22;;;1.60;99.90;;;;;;5023778;28;20030;-63
2024/03/19 02:59:14;;;;;;;7.95;5.40;;;;;;;;;;5023084;28;20226;-65
2024/03/19 03:01:40;;;;;;;11.05;6.63;;;1.50;99.90;;;;;;5027638;28;20318;-65
2024/03/19 03:04:06;;;;;;;10.00;5.93;;;1.50;99.80;;;;;;5025952;28;20105;-63
2024/03/19 03:06:31;;;;;;;9.30;5.88;;;1.40;99.80;;;;;;5030085;28;20038;-65
2024/03/19 03:08:58;;;;;;;9.45;6.30;;;1.50;99.90;;;;;;5039187;28;20363;-65
2024/03/19 03:11:24;;;;;;;12.13;5.93;;;1.50;99.90;;;;;;5028699;28;20317;-64
2024/03/19 03:13:49;;;;;;;11.98;6.35;;;1.50;99.90;;;;;;5033505;28;20045;-66
2024/03/19 03:16:16;;;;;;;9.32;5.25;;;1.60;99.90;;;;;;5026775;28;20350;-67
2024/03/19 03:18:42;;;;;;;10.40;5.28;;;1.50;99.90;;;;;;5032616;28;20128;-65
2024/03/19 03:21:08;;;;;;;10.02;5.20;;;1.80;99.90;;;;;;5014933;28;20033;-65
2024/03/19 03:23:34;;;;;;;10.48;5.82;;;1.60;99.90;;;;;;5030985;28;20158;-65
2024/03/19 03:26:02;;;;;;;9.15;5.40;;;1.60;99.90;;;;;;5040977;28;20092;-65
2024/03/19 03:28:28;;;;;;;10.70;6.85;;;1.60;89.00;;;;;;5034349;28;20034;-66
2024/03/19 03:30:53;;;;;;;12.07;5.85;;;1.70;88.70;;;;;;5041988;28;20034;-66
2024/03/19 03:33:22;;;;;;;10.43;5.70;;;1.70;88.60;;;;;;5042551;28;20037;-65
2024/03/19 03:35:47;;;;;;;10.20;6.10;;;1.80;88.90;;;;;;5022740;28;20026;-67
2024/03/19 03:38:14;;;;;;;11.98;6.22;;;1.70;88.80;;;;;;5026543;28;20021;-66
2024/03/19 03:40:40;;;;;;;10.02;6.00;;;1.70;88.20;;;;;;5028213;28;20054;-64
2024/03/19 03:43:05;;;;;;;9.93;5.22;;;1.80;88.80;;;;;;5023091;28;20132;-66
2024/03/19 03:45:31;;;;;;;9.43;6.05;;;1.80;88.80;;;;;;5022371;28;20152;-66
2024/03/19 03:47:56;;;;;;;10.73;5.65;;;1.90;88.70;;;;;;5027703;28;20101;-65
2024/03/19 03:50:22;;;;;;;9.82;5.32;;;1.90;88.60;;;;;;5022091;28;20037;-64
2024/03/19 03:52:48;;;;;;;9.13;5.50;;;2.00;99.90;;;;;;5034988;28;20032;-65
2024/03/19 03:55:14;;;;;;;8.93;5.22;;;;;;;;;;5034307;28;20088;-64
2024/03/19 03:57:40;;;;;;;7.93;5.32;;;1.90;87.70;;;;;;5036171;28;20330;-63
2024/03/19 04:00:11;;;;;;;9.98;5.43;;;2.20;88.30;;;;;;5032100;28;20136;-63
2024/03/19 04:02:42;;;;;;;8.93;5.53;;;2.00;99.90;;;;;;5030052;28;20049;-63
2024/03/19 04:05:09;;;;;;;16.05;6.65;;;1.40;87.80;;;;;;5031794;28;20322;-64
2024/03/19 04:07:41;;;;;;;11.93;6.47;;;1.90;87.80;;;;;;5068367;28;20573;-64
2024/03/19 04:10:08;;;;;;;9.90;6.13;;;1.90;88.60;;;;;;5033027;28;20298;-63
2024/03/19 04:12:40;;;;;;;11.93;6.32;;;1.90;88.20;;;;;;5041591;28;20314;-63
2024/03/19 04:15:07;;;;;;;11.18;6.20;;;1.90;87.80;;;;;;5030586;28;20040;-64
2024/03/19 04:17:35;;;;;;;11.30;6.65;;;1.90;87.20;;;;;;5036750;28;20037;-64
2024/03/19 04:20:05;;;;;;;11.30;6.80;;;1.90;99.90;;;;;;5029637;28;20041;-65
2024/03/19 04:22:32;;;;;;;10.57;5.85;;;1.90;87.50;;;;;;5023065;28;20101;-64
2024/03/19 04:24:58;;;;;;;11.27;6.07;;;1.70;88.00;;;;;;5031383;28;20393;-65
2024/03/19 04:27:23;;;;;;;12.50;6.88;;;2.00;88.50;;;;;;5033757;28;20032;-64
2024/03/19 04:29:50;;;;;;;10.65;6.35;;;1.80;88.60;;;;;;5028882;28;20038;-64
2024/03/19 04:32:16;;;;;;;10.38;6.30;;;1.80;88.50;;;;;;5028519;28;20214;-67
2024/03/19 04:34:41;;;;;;;11.38;6.45;;;1.80;99.90;;;;;;5035958;28;20041;-64
2024/03/19 04:37:07;;;;;;;10.90;6.18;;;1.80;89.20;;;;;;5029021;28;20046;-62
2024/03/19 04:39:33;;;;;;;11.18;6.20;;;1.70;90.00;;;;;;5028657;28;20091;-63
2024/03/19 04:41:58;;;;;;;11.98;6.95;;;1.80;90.10;;;;;;5033492;28;20292;-63
2024/03/19 04:44:24;;;;;;;12.15;6.32;;;1.80;90.20;;;;;;5029331;28;20048;-63
2024/03/19 04:46:50;;;;;;;11.77;6.72;;;1.70;90.10;;;;;;5022847;28;20051;-63
2024/03/19 04:49:16;;;;;;;13.52;7.32;;;1.70;99.90;;;;;;5029420;28;20052;-64
2024/03/19 04:51:41;;;;;;;13.70;7.88;;;1.60;99.90;;;;;;5023083;28;20034;-63
2024/03/19 04:54:07;;;;;;;13.80;7.85;;;1.60;99.90;;;;;;5020693;28;20292;-63
2024/03/19 04:56:33;;;;;;;15.90;8.57;;;1.60;99.90;;;;;;5021126;28;20030;-63
2024/03/19 04:58:58;;;;;;;14.52;7.40;;;1.60;90.80;;;;;;5025008;28;20427;-69
2024/03/19 05:01:24;;;;;;;16.23;8.75;;;1.60;99.90;;;;;;5033194;28;20970;-65
2024/03/19 05:03:50;;;;;;;15.88;8.00;;;1.90;91.00;;;;;;5032114;28;20310;-65
2024/03/19 05:06:16;;;;;;;13.18;7.40;;;;;;;;;;5021894;28;20041;-63
2024/03/19 05:08:42;;;;;;;14.65;8.13;;;1.60;90.70;;;;;;5035667;28;20113;-62
2024/03/19 05:11:07;;;;;;;13.30;8.63;;;1.70;90.60;;;;;;5029154;28;20033;-62
2024/03/19 05:13:33;;;;;;;16.65;7.93;;;1.70;90.40;;;;;;5025926;28;20025;-63
2024/03/19 05:15:59;;;;;;;13.35;7.43;;;1.60;99.90;;;;;;5032159;28;20075;-67
2024/03/19 05:18:24;;;;;;;14.10;8.38;;;1.80;90.60;;;;;;5028317;28;20033;-62
2024/03/19 05:20:50;;;;;;;13.68;7.93;;;2.20;99.90;;;;;;5020702;28;20041;-63
2024/03/19 05:23:16;;;;;;;15.23;8.25;;;1.50;99.90;;;;;;5031858;28;20025;-66
2024/03/19 05:25:42;;;;;;;13.02;7.13;;;1.90;91.10;;;;;;5040062;28;20249;-65
2024/03/19 05:28:11;;;;;;;15.00;8.50;;;1.90;91.40;;;;;;5029478;28;20040;-63
2024/03/19 05:30:37;;;;;;;16.17;8.35;;;;;;;;;;5036940;28;20025;-64
2024/03/19 05:33:02;;;;;;;13.82;7.80;;;1.80;99.90;;;;;;5040785;28;20041;-65
2024/03/19 05:35:28;;;;;;;15.52;9.13;;;2.20;98.80;;;;;;5029704;28;20048;-65
2024/03/19 05:37:54;;;;;;;14.18;7.47;;;2.10;99.90;;;;;;5025330;28;20088;-66
2024/03/19 05:40:20;;;;;;;14.93;8.43;;;;;;;;;;5024563;28;20060;-66
2024/03/19 05:42:46;;;;;;;13.85;8.05;;;2.30;90.00;;;;;;5033533;28;20057;-66
2024/03/19 05:45:13;;;;;;;12.73;7.53;;;2.40;99.90;;;;;;5041727;28;20215;-64
2024/03/19 05:47:39;;;;;;;15.85;7.95;;;2.30;88.90;;;;;;5033782;28;20029;-64
2024/03/19 05:50:08;;;;;;;14.20;8.05;;;2.20;88.40;;;;;;5033606;28;20042;-67
2024/03/19 05:52:34;;;;;;;15.68;8.25;;;;;;;;;;5037745;28;20080;-63
2024/03/19 05:55:00;;;;;;;17.60;8.35;;;;;;;;;;5031689;28;20049;-63
2024/03/19 05:57:26;;;;;;;15.05;7.97;;;;;;;;;;5027068;28;20060;-67
2024/03/19 05:59:51;;;;;;;13.60;7.95;;;2.40;90.10;;;;;;5021891;28;20265;-65
2024/03/19 06:02:17;;;;;;;17.13;8.93;;;;;;;;;;5025003;28;20030;-67
2024/03/19 06:04:43;;;;;;;18.48;10.13;;;;;;;;;;5030830;28;20043;-63
2024/03/19 06:07:09;;;;;;;17.23;8.52;;;2.50;98.40;;;;;;5031797;28;20083;-69
2024/03/19 06:09:41;;;;;;;16.60;8.93;;;;;;;;;;5025062;28;20038;-67
2024/03/19 06:12:09;;;;;;;20.33;10.43;;;;;;;;;;5021938;28;20349;-63
2024/03/19 06:14:35;;;;;;;18.65;9.63;;;2.60;92.50;;;;;;5023269;28;20076;-62
2024/03/19 06:17:00;;;;;;;17.70;9.23;;;2.60;89.90;;;;;;5021646;28;20268;-63
2024/03/19 06:19:27;;;;;;;22.33;9.40;;;;;;;;;;5019349;28;20084;-62
2024/03/19 06:21:53;;;;;;;18.77;9.73;;;2.60;93.40;;;;;;5025952;28;20034;-63
2024/03/19 06:24:19;;;;;;;21.50;10.82;;;;;;;;;;5025525;28;20037;-63
2024/03/19 06:26:45;;;;;;;22.20;11.00;;;;;;;;;;5023779;28;20064;-65
2024/03/19 06:29:11;;;;;;;19.67;10.10;;;;;;;;;;5027049;28;20036;-63
2024/03/19 06:31:37;;;;;;;17.35;10.23;;;2.90;97.80;;;;;;5025543;28;20034;-63
2024/03/19 06:34:04;;;;;;;23.35;11.85;;;;;;;;;;5035452;28;20041;-63
2024/03/19 06:36:30;;;;;;;21.50;10.70;;;;;;;;;;5019145;28;20037;-63
2024/03/19 06:38:56;;;;;;;16.92;9.43;;;3.20;91.40;;;;;;5031617;28;20038;-63
2024/03/19 06:41:22;;;;;;;23.27;10.55;;;3.40;91.00;;;;;;5033222;28;20229;-64
2024/03/19 06:43:48;;;;;;;19.58;10.90;;;;;;;;;;5030513;28;20037;-64
2024/03/19 06:46:14;;;;;;;21.80;11.65;;;;;;;;;;5029821;28;20039;-66
2024/03/19 06:48:43;;;;;;;23.20;12.80;;;;;;;;;;5019540;28;20083;-64
2024/03/19 06:51:09;;;;;;;21.15;11.27;;;;;;;;;;5022214;28;20036;-65
2024/03/19 06:53:35;;;;;;;18.52;10.73;;;;;;;;;;5030993;28;20033;-64
2024/03/19 06:56:07;;;;;;;26.27;12.93;;;4.00;79.90;;;;;;5023437;28;20044;-64
2024/03/19 06:58:34;;;;;;;20.73;10.93;;;;;;;;;;5026260;28;20022;-64
2024/03/19 07:01:01;;;;;;;18.13;10.60;;;;;;;;;;5029346;28;20030;-64
2024/03/19 07:03:27;;;;;;;13.80;8.60;;;;;;;;;;5019255;28;20437;-64
2024/03/19 07:05:54;;;;;;;19.40;10.48;;;4.10;90.80;;;;;;5028147;28;20021;-64
2024/03/19 07:08:20;;;;;;;19.02;10.00;;;4.30;85.10;;;;;;5019855;28;20041;-64
2024/03/19 07:10:47;;;;;;;18.90;10.20;;;4.40;77.70;;;;;;5035216;28;20037;-65
2024/03/19 07:13:12;;;;;;;18.52;10.70;;;4.40;77.50;;;;;;5027187;28;20376;-64
2024/03/19 07:15:38;;;;;;;17.90;8.88;;;4.40;94.20;;;;;;5023668;28;20026;-64
2024/03/19 07:18:05;;;;;;;23.08;10.80;;;4.30;93.90;;;;;;5027490;28;20034;-64
2024/03/19 07:20:31;;;;;;;17.80;10.27;;;;;;;;;;5029543;28;20064;-64
2024/03/19 07:22:59;;;;;;;18.48;9.77;;;4.60;93.90;;;;;;5029067;28;20329;-64
2024/03/19 07:25:24;;;;;;;14.93;9.50;;;4.50;93.80;;;;;;5030635;28;20041;-65
2024/03/19 07:27:50;;;;;;;16.67;10.18;;;;;;;;;;5022447;28;20105;-64
2024/03/19 07:30:17;;;;;;;26.27;11.00;;;4.60;94.50;;;;;;5030190;28;20037;-66
2024/03/19 07:32:45;;;;;;;21.13;11.07;;;4.60;94.10;;;;;;5029440;28;20038;-64
2024/03/19 07:35:11;;;;;;;22.17;11.13;;;;;;;;;;5013451;28;20581;-64
2024/03/19 07:37:38;;;;;;;18.17;11.48;;;4.70;74.60;;;;;;5022072;28;20037;-65
2024/03/19 07:40:09;;;;;;;20.55;11.93;;;4.80;74.30;;;;;;5038017;28;20050;-64
2024/03/19 07:42:39;;;;;;;24.00;11.02;;;4.90;73.90;;;;;;5027947;28;20033;-65
2024/03/19 07:45:06;;;;;;;24.83;12.27;;;5.30;76.70;;;;;;5033865;28;20444;-64
2024/03/19 07:47:33;;;;;;;22.75;11.40;;;5.00;73.20;;;;;;5023508;28;20069;-64
2024/03/19 07:49:59;;;;;;;21.70;10.70;;;;;;;;;;5028712;28;20038;-65
2024/03/19 07:52:26;;;;;;;21.52;11.45;;;5.10;72.30;;;;;;5025395;28;20287;-64
2024/03/19 07:54:52;;;;;;;20.38;10.52;;;5.20;72.20;;;;;;5023437;28;20029;-65
2024/03/19 07:57:18;;;;;;;22.55;11.82;;;5.30;72.50;;;;;;5025231;28;20025;-65
2024/03/19 07:59:44;;;;;;;22.42;11.95;;;5.40;71.90;;;;;;5028666;28;20065;-65
2024/03/19 08:02:09;;;;;;;18.70;10.27;;;5.50;90.80;;;;;;5025463;28;20013;-66
2024/03/19 08:04:35;;;;;;;18.60;10.55;;;;;;;;;;5032215;28;20305;-68
2024/03/19 08:07:01;;;;;;;14.88;9.63;;;5.70;90.20;;;;;;5029603;28;20089;-68
2024/03/19 08:09:27;;;;;;;18.90;10.02;;;5.70;87.40;;;;;;5020498;28;20330;-64
2024/03/19 08:11:54;;;;;;;17.70;10.20;;;6.00;88.80;;;;;;5022047;28;20034;-67
2024/03/19 08:14:23;;;;;;;14.70;7.97;;;6.00;88.10;;;;;;5026834;28;20053;-67
2024/03/19 08:16:49;;;;;;;13.70;7.90;;;;;;;;;;5032809;28;20321;-65
2024/03/19 08:19:15;;;;;;;13.60;7.60;;;;;;;;;;5021782;28;20032;-65
2024/03/19 08:21:42;;;;;;;11.07;7.20;;;;;;;;;;5029518;28;20037;-65
2024/03/19 08:24:09;;;;;;;12.02;7.75;;;;;;;;;;5038290;28;20075;-65
2024/03/19 08:26:35;;;;;;;13.27;7.40;;;6.50;84.80;;;;;;5028062;28;20026;-65
2024/03/19 08:29:01;;;;;;;12.98;7.75;;;6.40;84.20;;;;;;5022519;28;20026;-65
2024/03/19 08:31:27;;;;;;;14.70;7.72;;;6.50;84.10;;;;;;5021247;28;20037;-65
2024/03/19 08:33:53;;;;;;;13.65;8.20;;;;;;;;;;5037809;28;20092;-65
2024/03/19 08:36:20;;;;;;;13.63;8.43;;;6.80;88.00;;;;;;5025916;28;20080;-65
2024/03/19 08:38:46;;;;;;;13.65;8.07;;;6.70;63.20;;;;;;5024401;28;20034;-66
2024/03/19 08:41:13;;;;;;;12.23;7.88;;;6.80;63.40;;;;;;5032706;28;20064;-64
2024/03/19 08:43:39;;;;;;;14.52;8.93;;;7.00;83.00;;;;;;5025834;28;20334;-64
2024/03/19 08:46:06;;;;;;;12.73;7.50;;;7.00;82.30;;;;;;5038194;28;20027;-64
2024/03/19 08:48:32;;;;;;;12.57;8.57;;;6.90;82.40;;;;;;5037417;28;20037;-64
2024/03/19 08:50:57;;;;;;;15.15;8.73;;;7.00;81.70;;;;;;5032278;28;20083;-64
2024/03/19 08:53:23;;;;;;;15.10;8.10;;;7.20;81.30;;;;;;5026175;28;20040;-64
2024/03/19 08:55:56;;;;;;;13.25;8.02;;;6.90;60.70;;;;;;5022383;28;20044;-63
2024/03/19 08:58:23;;;;;;;12.70;7.60;;;7.20;80.00;;;;;;5023081;28;20463;-64
2024/03/19 09:00:48;;;;;;;12.32;7.82;;;7.40;65.00;;;;;;5028458;28;20033;-67
2024/03/19 09:03:14;;;;;;;13.80;8.13;;;7.60;78.80;;;;;;5018919;28;20437;-63
2024/03/19 09:05:40;;;;;;;14.85;8.13;;;7.60;77.00;;;;;;5021326;28;20123;-64
2024/03/19 09:08:06;;;;;;;13.45;8.30;;;;;;;;;;5023092;28;20041;-64
2024/03/19 09:10:33;;;;;;;13.63;8.30;;;7.80;58.40;;;;;;5035206;28;20029;-64
2024/03/19 09:12:59;;;;;;;11.55;8.00;;;8.00;58.60;;;;;;5032390;28;20030;-65
2024/03/19 09:15:26;;;;;;;10.77;7.13;;;8.20;78.00;;;;;;5033817;28;20029;-66
2024/03/19 09:17:53;;;;;;;11.63;7.60;;;8.00;57.20;;;;;;5020271;28;20392;-65
2024/03/19 09:20:20;;;;;;;11.93;6.30;;;8.10;56.90;;;;;;5022989;28;20079;-66
2024/03/19 09:22:46;;;;;;;12.13;7.78;;;8.30;56.10;;;;;;5020038;28;20018;-65
2024/03/19 09:25:13;;;;;;;12.13;7.90;;;8.40;56.20;;;;;;5022362;28;20051;-66
2024/03/19 09:27:39;;;;;;;11.90;7.63;;;8.50;56.60;;;;;;5020135;28;20042;-66
2024/03/19 09:30:09;;;;;;;10.73;6.40;;;8.50;56.20;;;;;;5028135;28;20393;-66
2024/03/19 09:32:38;;;;;;;12.95;7.65;;;8.50;56.00;;;;;;5023644;28;20069;-65
2024/03/19 09:35:04;;;;;;;11.75;7.93;;;8.50;78.80;;;;;;5019978;28;20100;-65
2024/03/19 09:37:31;;;;;;;12.75;7.88;;;8.30;56.50;;;;;;5021944;28;20025;-65
2024/03/19 09:39:57;;;;;;;13.82;7.35;;;8.30;56.50;;;;;;5023269;28;20073;-65
2024/03/19 09:42:24;;;;;;;9.77;7.45;;;8.40;56.10;;;;;;5023230;28;20029;-65
2024/03/19 09:44:53;;;;;;;10.00;7.35;;;8.50;55.90;;;;;;5020872;28;20547;-65
2024/03/19 09:47:22;;;;;;;11.23;7.90;;;9.00;77.60;;;;;;5031259;28;20207;-67
2024/03/19 09:49:49;;;;;;;11.05;7.32;;;8.60;55.70;;;;;;5034678;28;20029;-67
2024/03/19 09:52:16;;;;;;;11.48;6.38;;;8.40;77.00;;;;;;5025968;28;20033;-66
2024/03/19 09:54:42;;;;;;;12.45;7.13;;;8.40;55.10;;;;;;5018962;28;20044;-65
2024/03/19 09:57:16;;;;;;;8.52;5.57;;;8.40;55.40;;;;;;5029827;28;20384;-65
2024/03/19 09:59:47;;;;;;;10.23;7.07;;;8.80;77.60;;;;;;5019568;28;20041;-65
2024/03/19 10:02:18;;;;;;;12.02;7.80;;;8.60;55.10;;;;;;5017963;28;20053;-65
2024/03/19 10:04:48;;;;;;;9.63;7.38;;;8.70;55.00;;;;;;5020791;28;20037;-66
2024/03/19 10:07:21;;;;;;;11.93;7.45;;;8.80;54.70;;;;;;5019164;28;20329;-66
2024/03/19 10:09:48;;;;;;;11.38;7.32;;;8.80;54.10;;;;;;5019148;28;20071;-66
2024/03/19 10:12:15;;;;;;;12.57;7.18;;;8.70;76.10;;;;;;5019076;28;20322;-65
2024/03/19 10:14:42;;;;;;;10.68;7.25;;;8.80;53.30;;;;;;5019305;28;20037;-64
2024/03/19 10:17:18;;;;;;;10.45;7.20;;;8.70;76.20;;;;;;5019105;28;20030;-65
2024/03/19 10:19:44;;;;;;;10.05;6.47;;;8.80;53.80;;;;;;5019347;28;20104;-65
2024/03/19 10:22:11;;;;;;;11.23;7.53;;;9.10;52.50;;;;;;5033971;28;20326;-65
2024/03/19 10:24:38;;;;;;;10.55;6.95;;;9.10;53.30;;;;;;5019927;28;20042;-65
2024/03/19 10:27:09;;;;;;;8.32;5.40;;;9.10;52.70;;;;;;5037967;28;20117;-66
2024/03/19 10:29:35;;;;;;;8.52;5.22;;;9.10;52.20;;;;;;5021108;28;20041;-66
2024/03/19 10:32:01;;;;;;;9.13;6.35;;;9.00;51.60;;;;;;5018888;28;20048;-66
2024/03/19 10:34:26;;;;;;;10.57;6.80;;;8.90;52.00;;;;;;5020691;28;20097;-66
2024/03/19 10:36:53;;;;;;;9.40;6.32;;;9.00;51.40;;;;;;5031356;28;20021;-66
2024/03/19 10:39:22;;;;;;;7.97;5.88;;;9.20;52.10;;;;;;5024714;28;20340;-67
2024/03/19 10:41:51;;;;;;;;;;;9.40;51.60;;;;;;5029542;28;20037;-66
2024/03/19 10:44:21;;;;;;;7.00;5.10;;;9.60;49.80;;;;;;5026434;28;19909;-70
2024/03/19 10:46:48;;;;;;;5.53;3.85;;;9.80;48.80;;;;;;5024581;28;20079;-66
2024/03/19 10:49:21;;;;;;;5.28;4.07;;;10.10;47.60;;;;;;5022291;28;20034;-65
2024/03/19 10:52:19;;;;;;;4.10;3.42;;;10.40;46.70;;;;;;5020638;28;20349;-66
2024/03/19 10:54:53;;;;;;;4.43;3.65;;;10.40;45.00;;;;;;5020357;28;20093;-66
2024/03/19 10:57:20;;;;;;;4.57;3.80;;;10.30;45.80;;;;;;5061074;28;20041;-66
2024/03/19 10:59:46;;;;;;;4.68;4.03;;;10.40;44.80;;;;;;5030321;28;20065;-66
2024/03/19 11:02:17;;;;;;;5.15;3.97;;;10.50;44.80;;;;;;5017537;28;20034;-65
2024/03/19 11:04:43;;;;;;;5.65;4.07;;;10.60;45.50;;;;;;5006574;28;20026;-66
2024/03/19 11:07:23;;;;;;;6.63;5.13;;;10.60;45.30;;;;;;5029062;28;20040;-66
2024/03/19 11:09:53;;;;;;;7.57;3.97;;;10.60;44.70;;;;;;5023119;28;20284;-66
2024/03/19 11:12:25;;;;;;;4.43;3.55;;;10.40;43.20;;;;;;5018936;28;20026;-66
2024/03/19 11:14:56;;;;;;;5.55;4.28;;;10.10;71.70;;;;;;5024500;28;20040;-66
2024/03/19 11:17:28;;;;;;;6.63;5.15;;;10.20;44.90;;;;;;5034824;28;20084;-65
2024/03/19 11:19:55;;;;;;;8.35;5.57;;;10.10;45.00;;;;;;5030439;28;20256;-65
2024/03/19 11:22:21;;;;;;;6.88;4.78;;;10.10;44.70;;;;;;5020959;28;20038;-65
2024/03/19 11:24:50;;;;;;;9.02;6.47;;;10.20;45.40;;;;;;5025809;28;20057;-66
2024/03/19 11:27:18;;;;;;;8.23;6.20;;;10.40;73.00;;;;;;5026207;28;20372;-66
2024/03/19 11:29:46;;;;;;;10.27;5.97;;;10.30;46.30;;;;;;5033262;28;20223;-65
2024/03/19 11:32:23;;;;;;;6.53;4.60;;;10.30;46.20;;;;;;5023391;28;20333;-65
2024/03/19 11:34:53;;;;;;;9.15;5.63;;;10.30;46.10;;;;;;5023081;28;20330;-66
2024/03/19 11:37:19;;;;;;;8.95;6.30;;;10.40;46.30;;;;;;5022057;28;20040;-66
2024/03/19 11:39:45;;;;;;;9.50;5.47;;;10.40;46.70;;;;;;5021581;28;20261;-66
2024/03/19 11:42:12;;;;;;;11.48;5.97;;;10.40;46.60;;;;;;5019686;28;20034;-66
2024/03/19 11:44:38;;;;;;;7.60;5.70;;;10.40;72.80;;;;;;5027181;28;20036;-65
2024/03/19 11:47:05;;;;;;;7.60;5.00;;;10.40;46.10;;;;;;5041563;28;20044;-66
2024/03/19 11:49:30;;;;;;;6.82;4.75;;;10.50;45.70;;;;;;5021396;28;20339;-66
2024/03/19 11:52:04;;;;;;;8.27;5.18;;;10.50;44.90;;;;;;5029512;28;20049;-66
2024/03/19 11:54:32;;;;;;;8.93;6.82;;;11.20;60.00;;;;;;5023578;28;20028;-66
2024/03/19 11:56:58;;;;;;;7.95;5.07;;;;;;;;;;5031413;28;20088;-66
2024/03/19 11:59:25;;;;;;;10.40;5.70;;;11.60;42.70;;;;;;5025525;28;20026;-66
2024/03/19 12:01:56;;;;;;;7.78;5.93;;;11.90;42.50;;;;;;5024167;28;20049;-68
2024/03/19 12:04:25;;;;;;;9.77;5.95;;;11.70;46.00;;;;;;5026704;28;20033;-67
2024/03/19 12:06:52;;;;;;;7.35;6.13;;;11.80;42.20;;;;;;5023977;28;20030;-67
2024/03/19 12:09:19;;;;;;;9.45;5.97;;;12.40;43.00;;;;;;5023529;28;20385;-67
2024/03/19 12:11:53;;;;;;;7.57;5.65;;;12.00;53.80;;;;;;5023315;28;20364;-66
2024/03/19 12:14:26;;;;;;;8.40;6.65;;;;;;;;;;5014954;28;20060;-66
2024/03/19 12:16:56;;;;;;;8.88;6.72;;;12.10;57.30;;;;;;5029700;28;20500;-67
2024/03/19 12:19:21;;;;;;;8.13;6.40;;;12.00;57.00;;;;;;5026510;28;20112;-66
2024/03/19 12:21:51;;;;;;;8.07;5.25;;;12.40;59.00;;;;;;5027048;28;20030;-67
2024/03/19 12:24:18;;;;;;;7.50;5.43;;;12.20;59.10;;;;;;5027169;28;20085;-69
2024/03/19 12:26:47;;;;;;;11.85;7.40;;;11.80;42.80;;;;;;5024904;28;20038;-67
2024/03/19 12:29:17;;;;;;;11.95;6.95;;;11.30;52.10;;;;;;5024737;28;20032;-68
2024/03/19 12:34:38;;;;;;;8.23;6.45;;;11.10;60.70;;;;;;5024140;28;20049;-68
2024/03/19 12:37:09;;;;;;;8.55;6.80;;;10.70;44.70;;;;;;5031791;28;20046;-68
2024/03/19 12:39:35;;;;;;;11.35;7.05;;;10.20;61.00;;;;;;5025795;28;20053;-69
2024/03/19 12:42:03;;;;;;;10.00;6.68;;;;;;;;;;5019931;28;20067;-67
2024/03/19 12:44:29;;;;;;;9.10;6.22;;;;;;;;;;5021313;28;20165;-67
2024/03/19 12:46:56;;;;;;;9.45;7.20;;;10.10;45.10;;;;;;5021204;28;20026;-67
2024/03/19 12:49:25;;;;;;;10.65;6.30;;;10.40;49.50;;;;;;5025564;28;20277;-66
2024/03/19 12:51:51;;;;;;;12.77;8.18;;;;;;;;;;5026173;28;20132;-67
2024/03/19 12:54:16;;;;;;;12.75;7.18;;;10.00;60.40;;;;;;5025190;28;20148;-67
2024/03/19 12:56:42;;;;;;;10.25;7.68;;;9.90;61.20;;;;;;5029048;28;20101;-69
2024/03/19 12:59:09;;;;;;;11.73;8.15;;;;;;;;;;5033101;28;20118;-68
2024/03/19 13:01:35;;;;;;;11.25;7.43;;;10.80;46.20;;;;;;5028332;28;20061;-68
2024/03/19 13:04:01;;;;;;;13.15;7.70;;;11.20;46.70;;;;;;5025868;28;20057;-70